Time;durP1;ratioP1;P1;durP2;ratioP2;P2;SDS_P1;SDS_P2;PMS_P1;PMS_P2;Temp;Humidity;BMP_temperature;BMP_pressure;BME280_temperature;BME280_humidity;BME280_pressure;Samples;Min_cycle;Max_cycle;Signal;HPM_P1;HPM_P2
2022/05/10 00:01:03;;;;;;;22.45;16.20;;;;;;;14.19;72.06;101955.50;4952083;28;20122;-78
2022/05/10 00:03:36;;;;;;;24.00;16.20;;;;;;;14.16;72.20;101955.72;4953359;28;20498;-79
2022/05/10 00:06:04;;;;;;;23.33;16.80;;;;;;;14.10;72.63;101962.28;4969451;28;20157;-78
2022/05/10 00:08:31;;;;;;;20.27;16.48;;;;;;;14.07;72.92;101957.22;4971589;28;20065;-79
2022/05/10 00:10:56;;;;;;;22.60;16.50;;;;;;;14.01;72.13;101960.31;4973495;28;20030;-78
2022/05/10 00:13:26;;;;;;;22.83;16.90;;;;;;;13.97;73.16;101950.84;4973637;28;20023;-79
2022/05/10 00:15:52;;;;;;;23.75;17.38;;;;;;;13.92;72.89;101945.06;4959111;28;20089;-78
2022/05/10 00:18:20;;;;;;;21.30;16.65;;;;;;;13.90;73.27;101952.25;4955078;28;20085;-80
2022/05/10 00:20:47;;;;;;;23.45;16.75;;;;;;;13.84;73.58;101944.75;4954181;29;20035;-79
2022/05/10 00:23:16;;;;;;;21.63;17.33;;;;;;;13.78;73.26;101941.59;4966620;28;20035;-78
2022/05/10 00:25:42;;;;;;;22.95;17.20;;;;;;;13.75;73.72;101936.50;4955419;28;20483;-78
2022/05/10 00:28:08;;;;;;;22.55;17.35;;;;;;;13.72;73.57;101935.88;4972272;28;20046;-78
2022/05/10 00:30:34;;;;;;;23.10;17.80;;;;;;;13.69;73.95;101934.31;4973356;28;20114;-78
2022/05/10 00:32:59;;;;;;;21.63;17.23;;;;;;;13.65;73.86;101930.19;4981408;28;20528;-79
2022/05/10 00:35:27;;;;;;;26.13;18.50;;;;;;;13.60;73.83;101924.34;4972038;28;20033;-78
2022/05/10 00:37:57;;;;;;;26.85;18.10;;;;;;;13.57;73.98;101934.28;4972730;28;20027;-79
2022/05/10 00:40:25;;;;;;;25.50;18.80;;;;;;;13.53;74.69;101928.34;4969505;28;20050;-79
2022/05/10 00:43:01;;;;;;;24.63;18.70;;;;;;;13.49;74.97;101917.16;4971944;28;20117;-77
2022/05/10 00:45:42;;;;;;;24.95;18.55;;;;;;;13.49;74.93;101927.72;4972924;28;20101;-77
2022/05/10 00:48:35;;;;;;;22.95;17.63;;;;;;;13.44;74.25;101921.06;4955787;28;20031;-79
2022/05/10 00:51:13;;;;;;;22.02;18.48;;;;;;;13.40;74.85;101925.72;4972295;28;20025;-78
2022/05/10 00:53:48;;;;;;;25.13;19.05;;;;;;;13.40;75.36;101922.22;4973305;28;20110;-77
2022/05/10 00:56:36;;;;;;;26.75;19.25;;;;;;;13.36;75.42;101918.13;4969804;28;20038;-78
2022/05/10 00:59:11;;;;;;;27.27;20.10;;;;;;;13.32;75.62;101922.75;4952725;29;20400;-78
2022/05/10 01:01:39;;;;;;;23.75;19.48;;;;;;;13.31;75.82;101920.22;4969694;28;20058;-78
2022/05/10 01:04:18;;;;;;;28.38;20.35;;;;;;;13.30;74.81;101919.38;4972045;28;20026;-77
2022/05/10 01:06:53;;;;;;;31.73;20.48;;;;;;;13.25;75.59;101920.66;4972718;28;20357;-77
2022/05/10 01:09:34;;;;;;;26.88;20.30;;;;;;;13.20;75.79;101913.00;4972412;28;20049;-76
2022/05/10 01:12:33;;;;;;;25.05;19.10;;;;;;;13.25;74.66;101907.44;4969337;28;20506;-76
2022/05/10 01:15:06;;;;;;;27.40;20.73;;;;;;;13.20;75.94;101906.88;4959908;28;20031;-76
2022/05/10 01:17:32;;;;;;;25.70;21.42;;;;;;;13.15;76.25;101910.66;4952497;29;20178;-76
2022/05/10 01:19:57;;;;;;;29.40;21.63;;;;;;;13.14;76.53;101903.66;4952962;28;20102;-77
2022/05/10 01:22:44;;;;;;;27.20;23.02;;;;;;;13.14;76.79;101901.03;4953798;28;20151;-76
2022/05/10 01:25:21;;;;;;;27.45;22.65;;;;;;;13.15;76.76;101899.22;4971161;28;20022;-77
2022/05/10 01:27:53;;;;;;;28.13;21.77;;;;;;;13.12;76.83;101900.28;4972092;28;20050;-77
2022/05/10 01:30:23;;;;;;;29.88;22.08;;;;;;;13.11;77.07;101893.31;4951945;28;20031;-77
2022/05/10 01:33:30;;;;;;;28.65;22.27;;;;;;;13.10;76.46;101890.78;4970986;28;20023;-77
2022/05/10 01:36:14;;;;;;;32.38;23.15;;;;;;;13.11;76.07;101877.47;4968799;28;20515;-77
2022/05/10 01:38:43;;;;;;;28.25;22.45;;;;;;;13.04;77.43;101881.47;4971297;28;20056;-82
2022/05/10 01:41:47;;;;;;;29.63;22.92;;;;;;;13.08;75.91;101882.09;4971993;28;20054;-83
2022/05/10 01:44:32;;;;;;;35.75;24.00;;;;;;;13.04;76.63;101877.97;4970711;28;20046;-77
2022/05/10 01:47:06;;;;;;;28.98;23.10;;;;;;;13.01;77.47;101865.81;4968366;28;20054;-78
2022/05/10 01:49:40;;;;;;;29.48;22.52;;;;;;;12.99;77.56;101867.72;4954424;28;20029;-79
2022/05/10 01:52:15;;;;;;;29.77;23.30;;;;;;;12.97;77.68;101869.63;4971462;28;20046;-79
2022/05/10 01:54:41;;;;;;;27.88;24.05;;;;;;;12.98;77.67;101860.75;4973803;28;20019;-78
2022/05/10 01:57:15;;;;;;;29.13;24.13;;;;;;;12.96;77.80;101860.00;4971920;28;20092;-77
2022/05/10 01:59:50;;;;;;;29.73;22.75;;;;;;;12.93;77.89;101856.72;4970771;28;20027;-77
2022/05/10 02:02:19;;;;;;;28.52;22.48;;;;;;;12.90;77.96;101867.50;4982301;28;20030;-75
2022/05/10 02:04:48;;;;;;;29.52;23.50;;;;;;;12.89;78.19;101856.09;4966244;28;20106;-78
2022/05/10 02:07:19;;;;;;;28.25;23.63;;;;;;;12.88;78.18;101848.28;4969904;28;20558;-74
2022/05/10 02:10:08;;;;;;;37.00;24.98;;;;;;;12.89;77.90;101849.97;4971152;28;20193;-76
2022/05/10 02:12:46;;;;;;;32.00;24.70;;;;;;;12.89;78.36;101845.53;4971543;28;20495;-78
2022/05/10 02:15:18;;;;;;;31.10;23.63;;;;;;;12.89;78.70;101855.25;4963351;28;20090;-77
2022/05/10 02:17:52;;;;;;;30.17;23.42;;;;;;;12.89;78.75;101849.97;4952650;29;20034;-77
2022/05/10 02:20:34;;;;;;;29.33;24.13;;;;;;;12.89;78.60;101844.69;4934693;28;20462;-76
2022/05/10 02:23:07;;;;;;;30.23;25.07;;;;;;;12.89;79.03;101849.97;4967262;28;20030;-78
2022/05/10 02:25:37;;;;;;;34.15;25.08;;;;;;;12.90;79.28;101839.31;4972316;28;20110;-77
2022/05/10 02:28:12;;;;;;;30.98;24.77;;;;;;;12.88;78.92;101838.56;4952487;28;20031;-77
2022/05/10 02:30:37;;;;;;;32.40;25.98;;;;;;;12.89;79.38;101834.97;4934033;29;20531;-77
2022/05/10 02:33:11;;;;;;;32.55;25.73;;;;;;;12.90;79.02;101828.72;4962345;28;20118;-78
2022/05/10 02:35:54;;;;;;;32.05;24.55;;;;;;;12.94;78.63;101827.56;4970963;28;20050;-77
2022/05/10 02:38:34;;;;;;;33.28;25.25;;;;;;;12.96;78.96;101830.94;4969528;28;20038;-77
2022/05/10 02:41:02;;;;;;;32.28;25.38;;;;;;;12.95;79.09;101818.69;4968631;28;20207;-78
2022/05/10 02:43:34;;;;;;;33.42;26.85;;;;;;;12.98;79.41;101825.56;4970355;28;20520;-77
2022/05/10 02:45:59;;;;;;;35.10;25.27;;;;;;;13.01;78.86;101823.56;4969168;28;20371;-77
2022/05/10 02:48:29;;;;;;;32.75;25.58;;;;;;;12.99;78.96;101820.19;4969211;28;20122;-77
2022/05/10 02:50:57;;;;;;;30.67;25.17;;;;;;;13.02;78.56;101812.03;4952418;28;20475;-77
2022/05/10 02:53:22;;;;;;;39.85;26.38;;;;;;;13.01;78.82;101806.84;4969261;28;20498;-77
2022/05/10 02:55:58;;;;;;;33.50;25.70;;;;;;;13.02;78.68;101808.56;4967667;28;20087;-77
2022/05/10 02:58:29;;;;;;;32.28;25.25;;;;;;;12.99;78.83;101801.69;4970304;28;20694;-75
2022/05/10 03:01:06;;;;;;;34.53;25.17;;;;;;;13.01;78.22;101797.13;4970452;28;20041;-77
2022/05/10 03:03:33;;;;;;;32.67;24.52;;;;;;;13.01;78.11;101805.06;4970008;28;20034;-76
2022/05/10 03:05:59;;;;;;;31.35;24.58;;;;;;;13.02;78.76;101793.53;4970281;28;20506;-77
2022/05/10 03:08:25;;;;;;;31.02;24.17;;;;;;;13.04;78.85;101794.28;4969973;28;20109;-80
2022/05/10 03:10:51;;;;;;;31.63;24.73;;;;;;;13.02;78.77;101790.91;4970151;28;20023;-77
2022/05/10 03:13:16;;;;;;;30.67;24.35;;;;;;;13.05;78.49;101788.03;4969018;28;20387;-77
2022/05/10 03:15:42;;;;;;;30.45;23.70;;;;;;;13.07;78.22;101780.00;4970724;28;20039;-77
2022/05/10 03:18:07;;;;;;;31.85;23.90;;;;;;;13.07;77.83;101782.66;4969496;28;20038;-76
2022/05/10 03:20:33;;;;;;;30.83;24.15;;;;;;;13.06;78.56;101784.44;4967655;28;20026;-76
2022/05/10 03:22:59;;;;;;;29.02;23.10;;;;;;;13.07;77.94;101785.28;4953264;28;20030;-76
2022/05/10 03:25:25;;;;;;;30.92;24.38;;;;;;;13.07;78.81;101772.94;4970271;28;20039;-79
2022/05/10 03:27:51;;;;;;;34.55;23.80;;;;;;;13.09;78.24;101781.59;4970358;28;20023;-77
2022/05/10 03:30:17;;;;;;;30.50;23.67;;;;;;;13.10;77.97;101775.34;4968930;28;20030;-76
2022/05/10 03:32:44;;;;;;;27.98;22.63;;;;;;;13.11;78.61;101777.03;4952427;28;20508;-77
2022/05/10 03:35:11;;;;;;;27.65;22.35;;;;;;;13.13;78.89;101767.22;4970864;28;20049;-77
2022/05/10 03:37:40;;;;;;;30.27;22.73;;;;;;;13.13;77.55;101769.84;4970907;28;20035;-79
2022/05/10 03:40:07;;;;;;;29.10;22.05;;;;;;;13.14;78.01;101766.25;4969133;28;20261;-77
2022/05/10 03:42:33;;;;;;;29.85;21.75;;;;;;;13.17;78.10;101771.34;4973147;28;20371;-77
2022/05/10 03:44:58;;;;;;;28.23;22.58;;;;;;;13.16;78.32;101761.72;4980219;28;20042;-77
2022/05/10 03:47:26;;;;;;;28.38;22.48;;;;;;;13.17;77.88;101766.06;4973125;28;20027;-77
2022/05/10 03:49:53;;;;;;;29.95;21.48;;;;;;;13.20;77.85;101762.38;4956693;28;20019;-78
2022/05/10 03:52:19;;;;;;;32.53;22.27;;;;;;;13.21;77.51;101763.22;4973904;28;20029;-78
2022/05/10 03:55:00;;;;;;;31.83;21.98;;;;;;;13.22;77.07;101764.94;4924905;28;20034;-77
2022/05/10 03:57:26;;;;;;;31.42;23.25;;;;;;;13.24;77.23;101755.94;4974585;28;20435;-77
2022/05/10 03:59:51;;;;;;;33.20;22.10;;;;;;;13.21;76.69;101750.88;4973141;28;20031;-77
2022/05/10 04:02:18;;;;;;;28.63;21.58;;;;;;;13.29;76.75;101753.81;4970674;28;20027;-78
2022/05/10 04:04:44;;;;;;;28.13;21.83;;;;;;;13.30;77.14;101746.72;4983503;28;20030;-77
2022/05/10 04:07:10;;;;;;;29.20;21.98;;;;;;;13.30;77.10;101755.50;4971299;28;20027;-77
2022/05/10 04:09:36;;;;;;;29.90;21.67;;;;;;;13.33;76.24;101755.28;4971718;28;20043;-77
2022/05/10 04:12:06;;;;;;;35.85;21.73;;;;;;;13.35;76.30;101752.53;4973851;28;20031;-77
2022/05/10 04:14:32;;;;;;;32.38;22.38;;;;;;;13.36;76.46;101743.66;4972808;28;20035;-77
2022/05/10 04:16:57;;;;;;;29.02;21.65;;;;;;;13.37;76.33;101751.47;4972726;28;20596;-77
2022/05/10 04:19:23;;;;;;;31.92;21.80;;;;;;;13.42;76.00;101753.78;4973045;28;20362;-78
2022/05/10 04:21:49;;;;;;;26.80;21.70;;;;;;;13.46;75.67;101749.97;4970557;28;20267;-78
2022/05/10 04:24:14;;;;;;;30.38;22.27;;;;;;;13.48;75.87;101748.03;4973211;28;20383;-78
2022/05/10 04:26:40;;;;;;;28.88;22.02;;;;;;;13.52;75.31;101749.50;4974627;28;20031;-78
2022/05/10 04:29:05;;;;;;;31.95;22.05;;;;;;;13.57;75.36;101747.38;4972234;28;20039;-78
2022/05/10 04:31:31;;;;;;;31.67;22.13;;;;;;;13.60;75.02;101741.88;4956173;28;20073;-78
2022/05/10 04:33:57;;;;;;;35.33;21.88;;;;;;;13.64;74.71;101743.38;4972054;28;20033;-78
2022/05/10 04:36:25;;;;;;;30.55;21.33;;;;;;;13.67;74.36;101737.84;4970584;28;20399;-78
2022/05/10 04:38:50;;;;;;;29.35;20.92;;;;;;;13.72;74.11;101743.66;4970350;28;20521;-78
2022/05/10 04:41:27;;;;;;;29.38;21.45;;;;;;;13.77;74.01;101743.31;4972624;28;20154;-78
2022/05/10 04:44:07;;;;;;;31.05;21.02;;;;;;;13.84;73.56;101738.41;4977447;28;20038;-77
2022/05/10 04:46:37;;;;;;;31.23;21.02;;;;;;;13.88;73.57;101740.72;4972768;28;20178;-78
2022/05/10 04:49:04;;;;;;;30.17;20.65;;;;;;;13.96;72.85;101732.19;4951519;28;20403;-78
2022/05/10 04:51:35;;;;;;;33.80;21.58;;;;;;;14.01;72.96;101730.09;4975491;28;20380;-78
2022/05/10 04:54:07;;;;;;;27.42;19.95;;;;;;;14.06;72.54;101728.78;4970509;28;20119;-78
2022/05/10 04:56:33;;;;;;;;;;;;;;;14.17;72.33;101729.78;4973333;28;20037;-78
2022/05/10 04:58:59;;;;;;;31.80;21.42;;;;;;;14.22;72.53;101731.13;4974494;28;20302;-79
2022/05/10 05:01:27;;;;;;;26.77;19.58;;;;;;;14.30;71.87;101731.38;4986555;28;20039;-78
2022/05/10 05:03:55;;;;;;;30.42;20.63;;;;;;;14.37;72.09;101732.59;4971162;28;20031;-77
2022/05/10 05:06:24;;;;;;;28.65;20.92;;;;;;;14.44;71.75;101732.19;4972290;28;20391;-76
2022/05/10 05:08:49;;;;;;;27.00;20.23;;;;;;;14.49;71.76;101719.44;4969576;28;20043;-75
2022/05/10 05:11:16;;;;;;;27.30;19.88;;;;;;;14.57;71.70;101735.56;4952682;28;20038;-80
2022/05/10 05:13:42;;;;;;;25.08;19.33;;;;;;;14.64;71.50;101728.84;4972765;28;20026;-77
2022/05/10 05:16:07;;;;;;;27.02;19.42;;;;;;;14.70;71.30;101734.50;4971916;28;20027;-77
2022/05/10 05:18:33;;;;;;;28.83;18.70;;;;;;;14.77;71.05;101729.56;4969406;28;20073;-78
2022/05/10 05:20:58;;;;;;;24.15;18.48;;;;;;;14.84;71.03;101736.13;4972735;28;20081;-78
2022/05/10 05:23:24;;;;;;;25.52;18.73;;;;;;;14.89;70.64;101736.59;4972091;28;20035;-78
2022/05/10 05:25:52;;;;;;;25.58;17.80;;;;;;;14.96;70.44;101735.16;4971314;28;20030;-78
2022/05/10 05:28:21;;;;;;;23.75;18.02;;;;;;;14.98;70.52;101733.22;4956347;28;20479;-78
2022/05/10 05:30:47;;;;;;;22.45;17.35;;;;;;;15.03;70.54;101725.75;4971174;28;20074;-78
2022/05/10 05:33:13;;;;;;;21.83;17.58;;;;;;;15.10;70.29;101725.25;4973100;28;20022;-78
2022/05/10 05:35:39;;;;;;;23.27;17.40;;;;;;;15.20;70.08;101734.16;4971355;28;20459;-78
2022/05/10 05:38:05;;;;;;;22.15;17.75;;;;;;;15.25;70.12;101734.66;4971603;28;20023;-78
2022/05/10 05:40:32;;;;;;;24.77;17.48;;;;;;;15.31;70.13;101734.19;4972456;28;20027;-78
2022/05/10 05:42:58;;;;;;;28.15;18.15;;;;;;;15.42;69.79;101741.28;4972067;28;20030;-78
2022/05/10 05:45:24;;;;;;;20.23;17.48;;;;;;;15.49;69.60;101732.69;4970081;28;20487;-78
2022/05/10 05:47:51;;;;;;;19.80;16.40;;;;;;;15.58;69.39;101734.63;4970589;28;20031;-78
2022/05/10 05:50:18;;;;;;;19.45;16.58;;;;;;;15.66;69.08;101726.91;4970743;28;19998;-78
2022/05/10 05:52:47;;;;;;;21.48;17.75;;;;;;;15.77;68.76;101736.66;4972033;28;20078;-77
2022/05/10 05:55:13;;;;;;;22.42;16.67;;;;;;;15.88;68.65;101725.97;4966847;28;20026;-78
2022/05/10 05:57:39;;;;;;;21.95;16.40;;;;;;;15.97;68.21;101725.22;4970175;28;20072;-78
2022/05/10 06:00:08;;;;;;;20.90;15.80;;;;;;;16.03;68.39;101718.59;4962847;28;20027;-78
2022/05/10 06:02:38;;;;;;;20.65;15.57;;;;;;;16.13;67.82;101700.06;4965105;28;20045;-78
2022/05/10 06:05:05;;;;;;;18.83;15.45;;;;;;;16.25;67.84;101704.34;4968296;28;20027;-78
2022/05/10 06:07:31;;;;;;;17.80;14.75;;;;;;;16.35;67.40;101712.38;4962748;28;20373;-79
2022/05/10 06:09:58;;;;;;;19.77;14.75;;;;;;;16.45;66.82;101711.47;4967056;28;20035;-78
2022/05/10 06:12:23;;;;;;;15.85;14.13;;;;;;;16.57;66.61;101709.59;4980673;28;20325;-78
2022/05/10 06:14:49;;;;;;;16.85;14.07;;;;;;;16.69;66.28;101721.00;4984467;28;20387;-78
2022/05/10 06:17:15;;;;;;;15.93;13.43;;;;;;;16.83;66.43;101716.22;4962069;28;20030;-78
2022/05/10 06:19:42;;;;;;;19.75;13.23;;;;;;;16.97;65.64;101716.81;4970346;28;20488;-79
2022/05/10 06:22:10;;;;;;;19.17;14.07;;;;;;;17.10;64.99;101717.41;4967456;28;20403;-78
2022/05/10 06:24:36;;;;;;;15.90;11.93;;;;;;;17.18;64.55;101704.28;4984543;28;20038;-78
2022/05/10 06:27:05;;;;;;;16.52;12.00;;;;;;;17.29;64.61;101717.50;4964452;28;20027;-78
2022/05/10 06:29:31;;;;;;;15.02;12.00;;;;;;;17.37;64.28;101709.66;4986213;28;20050;-78
2022/05/10 06:31:58;;;;;;;14.30;11.27;;;;;;;17.48;64.17;101701.56;4980247;28;20037;-78
2022/05/10 06:34:23;;;;;;;16.40;11.15;;;;;;;17.58;64.47;101706.06;4969060;28;20466;-78
2022/05/10 06:36:49;;;;;;;16.90;11.43;;;;;;;17.69;63.42;101704.16;4969433;28;20094;-78
2022/05/10 06:39:14;;;;;;;13.90;11.05;;;;;;;17.76;63.58;101696.47;4987353;28;20046;-78
2022/05/10 06:41:41;;;;;;;12.07;10.77;;;;;;;17.89;63.08;101707.66;4986369;28;20041;-78
2022/05/10 06:44:07;;;;;;;15.35;10.80;;;;;;;17.98;62.57;101698.84;4969580;28;20050;-79
2022/05/10 06:46:34;;;;;;;13.23;10.63;;;;;;;18.10;62.04;101702.22;4970947;28;20517;-78
2022/05/10 06:49:01;;;;;;;16.55;10.30;;;;;;;18.24;62.26;101692.94;4970471;28;20064;-79
2022/05/10 06:51:28;;;;;;;16.15;10.15;;;;;;;18.33;61.91;101692.06;4969689;28;20082;-79
2022/05/10 06:53:55;;;;;;;19.08;9.95;;;;;;;18.41;61.40;101687.72;4969559;28;20038;-79
2022/05/10 06:56:21;;;;;;;14.20;9.40;;;;;;;18.53;60.93;101679.56;4970242;28;20069;-78
2022/05/10 06:58:47;;;;;;;18.67;9.65;;;;;;;18.68;60.40;101686.97;4970665;28;20034;-81
2022/05/10 07:01:13;;;;;;;17.08;9.07;;;;;;;18.82;60.42;101684.84;4968438;28;20155;-78
2022/05/10 07:03:49;;;;;;;12.57;8.98;;;;;;;18.96;60.57;101681.69;4954685;28;20435;-79
2022/05/10 07:06:19;;;;;;;14.82;9.32;;;;;;;19.14;60.21;101687.88;4977368;28;20052;-79
2022/05/10 07:08:46;;;;;;;12.00;9.05;;;;;;;19.33;58.56;101685.13;4979935;28;20074;-77
2022/05/10 07:11:12;;;;;;;10.32;9.13;;;;;;;19.52;58.32;101680.63;4983169;28;20030;-78
2022/05/10 07:13:38;;;;;;;17.10;9.00;;;;;;;19.66;58.37;101677.50;4969352;28;20523;-78
2022/05/10 07:16:04;;;;;;;13.68;8.95;;;;;;;19.77;58.07;101676.41;4966999;28;20030;-78
2022/05/10 07:18:30;;;;;;;12.52;9.43;;;;;;;19.84;56.98;101675.66;4967728;28;20170;-77
2022/05/10 07:20:56;;;;;;;11.00;8.82;;;;;;;19.98;57.13;101667.06;4969981;28;20183;-80
2022/05/10 07:23:29;;;;;;;12.30;8.63;;;;;;;20.15;56.97;101667.22;4984038;28;20038;-80
2022/05/10 07:25:55;;;;;;;11.48;8.38;;;;;;;20.44;55.57;101667.81;4970588;28;20031;-80
2022/05/10 07:28:21;;;;;;;11.13;8.10;;;;;;;20.79;55.47;101656.09;4968528;28;20046;-79
2022/05/10 07:30:47;;;;;;;11.10;8.25;;;;;;;20.97;54.76;101656.03;4970181;28;20022;-78
2022/05/10 07:33:20;;;;;;;11.07;7.50;;;;;;;21.14;53.93;101659.59;4970634;28;20049;-79
2022/05/10 07:36:33;;;;;;;13.93;7.30;;;;;;;21.22;53.81;101662.31;4950206;28;20169;-78
2022/05/10 07:38:34;;;;;;;13.55;8.35;;;;;;;21.20;52.54;101659.78;4961556;28;20052;-80
2022/05/10 07:40:59;;;;;;;11.13;7.53;;;;;;;21.25;53.13;101652.16;4969846;28;20031;-79
2022/05/10 07:43:24;;;;;;;10.40;7.75;;;;;;;21.34;52.50;101652.16;4970206;28;20439;-78
2022/05/10 07:45:51;;;;;;;10.93;7.35;;;;;;;21.48;52.37;101649.66;4970144;28;20074;-79
2022/05/10 07:48:17;;;;;;;11.93;7.40;;;;;;;21.54;51.45;101650.84;4985681;28;20064;-79
2022/05/10 07:50:42;;;;;;;9.55;7.60;;;;;;;21.61;51.30;101646.50;4967932;28;20018;-81
2022/05/10 07:53:13;;;;;;;12.90;7.35;;;;;;;21.64;51.30;101648.88;4985730;28;20046;-78
2022/05/10 07:55:38;;;;;;;13.10;6.90;;;;;;;21.78;51.39;101642.84;4970232;28;20042;-81
2022/05/10 07:58:04;;;;;;;15.63;7.13;;;;;;;21.91;50.79;101647.69;4968532;28;20483;-80
2022/05/10 08:00:31;;;;;;;18.05;7.45;;;;;;;21.92;50.16;101654.72;4967226;28;20026;-80
2022/05/10 08:02:56;;;;;;;11.85;6.72;;;;;;;21.88;50.81;101646.19;4969077;28;20031;-80
2022/05/10 08:05:25;;;;;;;16.45;7.18;;;;;;;21.85;50.14;101643.00;4967380;28;20380;-80
2022/05/10 08:07:51;;;;;;;10.93;6.78;;;;;;;21.78;51.27;101653.56;4966764;28;20097;-79
2022/05/10 08:10:17;;;;;;;10.35;6.80;;;;;;;21.94;51.43;101647.34;4969229;28;20027;-79
2022/05/10 08:12:43;;;;;;;10.70;6.10;;;;;;;21.97;50.19;101646.19;4968807;28;20027;-79
2022/05/10 08:15:09;;;;;;;9.82;6.63;;;;;;;21.88;50.81;101643.50;4976500;28;20494;-79
2022/05/10 08:17:35;;;;;;;8.55;5.85;;;;;;;21.86;50.57;101645.50;4971171;28;20027;-78
2022/05/10 08:20:00;;;;;;;8.13;5.60;;;;;;;21.82;49.66;101644.19;4967264;28;20030;-78
2022/05/10 08:22:25;;;;;;;9.55;5.43;;;;;;;21.87;50.48;101639.16;4977506;28;20027;-80
2022/05/10 08:24:51;;;;;;;13.95;5.70;;;;;;;21.85;50.84;101638.47;4969385;28;20031;-79
2022/05/10 08:27:16;;;;;;;25.88;5.75;;;;;;;21.97;50.25;101640.81;4948809;28;20499;-80
2022/05/10 08:29:42;;;;;;;19.63;6.30;;;;;;;21.91;49.45;101639.66;4972000;28;20031;-80
2022/05/10 08:32:08;;;;;;;16.80;6.05;;;;;;;21.87;49.35;101630.28;4973599;28;20440;-79
2022/05/10 08:34:35;;;;;;;12.02;5.72;;;;;;;21.86;49.11;101634.81;4987187;28;20026;-80
2022/05/10 08:37:06;;;;;;;13.68;5.68;;;;;;;21.87;49.72;101624.91;4972744;28;20089;-80
2022/05/10 08:39:31;;;;;;;14.07;5.87;;;;;;;21.83;48.70;101637.81;4972713;28;20507;-78
2022/05/10 08:42:03;;;;;;;13.27;6.30;;;;;;;21.77;48.62;101627.78;4971946;28;20082;-78
2022/05/10 08:44:33;;;;;;;10.20;5.88;;;;;;;21.77;48.97;101625.09;4972458;28;20510;-79
2022/05/10 08:47:06;;;;;;;14.30;5.68;;;;;;;21.83;49.61;101624.41;4992373;28;20879;-78
2022/05/10 08:49:41;;;;;;;23.63;5.88;;;;;;;21.86;49.08;101620.56;4991971;28;20029;-79
2022/05/10 08:52:06;;;;;;;28.88;6.68;;;;;;;21.93;49.01;101612.69;4992067;28;20026;-79
2022/05/10 08:54:34;;;;;;;15.10;5.80;;;;;;;21.98;48.60;101616.53;4991753;28;20251;-79
2022/05/10 08:57:04;;;;;;;15.32;5.05;;;;;;;22.04;48.33;101620.44;4991022;28;20513;-78
2022/05/10 08:59:33;;;;;;;15.32;4.60;;;;;;;22.14;48.79;101613.03;4992279;28;20149;-78
2022/05/10 09:02:03;;;;;;;12.05;5.47;;;;;;;22.26;47.61;101610.81;4988211;28;20556;-78
2022/05/10 09:04:35;;;;;;;9.07;5.63;;;;;;;22.60;47.30;101605.19;4978582;28;20019;-78
2022/05/10 09:07:25;;;;;;;13.40;4.90;;;;;;;22.96;47.34;101603.72;4971287;28;20493;-78
2022/05/10 09:10:15;;;;;;;6.10;4.70;;;;;;;23.20;46.29;101613.47;4941072;28;20047;-78
2022/05/10 09:12:56;;;;;;;8.23;5.40;;;;;;;23.31;45.58;101606.88;4955389;28;20042;-78
2022/05/10 09:15:22;;;;;;;7.10;4.70;;;;;;;23.55;45.58;101601.34;4963201;28;20031;-78
2022/05/10 09:17:47;;;;;;;10.38;5.70;;;;;;;23.72;44.03;101599.38;4952667;29;20039;-79
2022/05/10 09:20:13;;;;;;;8.27;5.63;;;;;;;23.72;44.12;101600.22;4952998;29;20079;-79
2022/05/10 09:23:13;;;;;;;8.80;5.15;;;;;;;23.84;46.08;101597.09;4951906;28;20029;-80
2022/05/10 09:25:42;;;;;;;8.23;4.93;;;;;;;23.98;44.64;101593.56;4952818;28;20027;-80
2022/05/10 09:28:36;;;;;;;11.80;5.13;;;;;;;24.13;45.32;101599.00;4971744;28;20487;-80
2022/05/10 09:37:29;;;;;;;9.68;5.20;;;;;;;24.18;45.83;101581.28;4951925;29;20413;-78
2022/05/10 09:39:57;;;;;;;7.88;5.15;;;;;;;24.28;44.27;101581.88;4952111;28;20027;-81
2022/05/10 09:42:34;;;;;;;13.48;5.72;;;;;;;24.36;45.08;101584.47;4955810;28;20035;-78
2022/05/10 09:45:05;;;;;;;8.18;5.72;;;;;;;24.32;43.47;101580.47;4950415;29;20035;-78
2022/05/10 09:47:32;;;;;;;10.07;5.70;;;;;;;24.27;43.18;101572.13;4954150;28;20030;-79
2022/05/10 09:50:13;;;;;;;13.35;5.55;;;;;;;24.24;44.16;101577.84;4958145;28;20030;-79
2022/05/10 09:52:42;;;;;;;10.40;5.72;;;;;;;24.49;43.27;101574.91;4950287;28;20027;-78
2022/05/10 09:55:14;;;;;;;7.63;5.70;;;;;;;24.87;42.49;101571.06;4951616;28;20444;-80
2022/05/10 09:57:41;;;;;;;11.43;5.72;;;;;;;25.07;41.94;101559.69;4950653;28;20024;-81
2022/05/10 10:00:11;;;;;;;9.60;5.40;;;;;;;25.23;41.89;101564.84;4957906;28;20599;-81
2022/05/10 10:02:38;;;;;;;8.82;5.20;;;;;;;25.37;41.29;101558.53;4954496;28;20050;-81
2022/05/10 10:05:25;;;;;;;10.80;5.28;;;;;;;25.59;42.00;101545.88;4964825;28;20450;-78
2022/05/10 10:07:56;;;;;;;8.93;5.03;;;;;;;25.72;40.74;101547.88;4951340;28;20563;-78
2022/05/10 10:10:31;;;;;;;9.68;5.13;;;;;;;25.83;40.32;101547.34;4975585;28;20154;-80
2022/05/10 10:12:58;;;;;;;11.07;4.78;;;;;;;25.78;39.04;101547.94;4970490;28;20110;-79
2022/05/10 10:15:37;;;;;;;6.38;4.60;;;;;;;25.84;40.18;101540.91;4961622;28;20038;-78
2022/05/10 10:18:06;;;;;;;7.05;4.30;;;;;;;26.10;39.04;101538.41;4990685;28;20145;-79
2022/05/10 10:20:43;;;;;;;7.70;4.22;;;;;;;26.50;37.69;101530.53;4989353;28;20121;-79
2022/05/10 10:23:30;;;;;;;8.52;4.07;;;;;;;26.76;38.46;101544.13;4971787;28;20487;-79
2022/05/10 10:26:01;;;;;;;11.13;4.30;;;;;;;26.79;36.85;101530.19;4988933;28;20034;-79
2022/05/10 10:28:52;;;;;;;8.70;4.63;;;;;;;26.83;37.65;101553.09;4990707;28;20110;-79
2022/05/10 10:31:20;;;;;;;12.32;4.30;;;;;;;26.69;36.12;101545.97;4973095;28;20027;-81
2022/05/10 10:34:05;;;;;;;13.63;4.78;;;;;;;26.73;37.60;101547.22;4980940;28;20022;-79
2022/05/10 10:36:40;;;;;;;9.02;4.88;;;;;;;26.82;37.66;101539.78;4990218;28;20034;-80
2022/05/10 10:39:28;;;;;;;9.77;4.15;;;;;;;27.02;37.63;101529.06;4979478;28;20023;-80
2022/05/10 10:42:12;;;;;;;14.95;4.80;;;;;;;27.15;36.07;101535.31;4968937;28;20031;-79
2022/05/10 10:44:43;;;;;;;11.57;4.70;;;;;;;27.09;36.18;101529.91;4967222;28;20018;-79
2022/05/10 10:47:31;;;;;;;12.75;4.75;;;;;;;27.03;37.17;101530.72;4970031;28;20038;-81
2022/05/10 10:50:05;;;;;;;13.75;4.80;;;;;;;26.84;36.39;101535.03;4977242;28;20378;-81
2022/05/10 10:52:31;;;;;;;8.07;4.68;;;;;;;26.76;37.10;101518.97;4989441;28;20058;-81
2022/05/10 10:54:58;;;;;;;6.43;4.35;;;;;;;26.72;37.30;101521.25;4983694;28;20141;-81
2022/05/10 10:57:52;;;;;;;9.35;5.10;;;;;;;26.67;36.95;101526.44;4954481;28;20053;-81
2022/05/10 11:00:20;;;;;;;9.82;4.50;;;;;;;26.48;37.08;101511.00;4982245;28;20042;-78
2022/05/10 11:03:08;;;;;;;13.40;4.93;;;;;;;26.38;38.17;101513.22;4986873;28;20112;-82
2022/05/10 11:06:15;;;;;;;12.73;5.00;;;;;;;26.30;37.93;101514.22;4980607;28;20026;-79
2022/05/10 11:09:01;;;;;;;10.13;5.13;;;;;;;26.28;38.26;101499.25;4969110;28;20134;-79
2022/05/10 11:11:51;;;;;;;7.20;4.60;;;;;;;26.31;38.47;101501.56;4950730;28;20109;-80
2022/05/10 11:14:35;;;;;;;11.48;4.72;;;;;;;26.31;38.31;101498.84;4950432;28;20024;-80
2022/05/10 11:17:29;;;;;;;7.88;4.47;;;;;;;26.13;37.24;101497.53;4951275;28;20089;-81
2022/05/10 11:20:35;;;;;;;6.65;4.72;;;;;;;26.04;39.06;101490.66;4961252;28;20039;-81
2022/05/10 11:23:07;;;;;;;9.23;4.85;;;;;;;25.91;38.97;101491.38;4969688;28;20035;-81
2022/05/10 11:26:11;;;;;;;12.02;5.10;;;;;;;25.89;38.84;101485.34;4965481;28;20089;-81
2022/05/10 11:28:55;;;;;;;15.05;4.90;;;;;;;25.95;38.64;101482.91;4967241;28;20105;-80
2022/05/10 11:31:31;;;;;;;8.10;4.90;;;;;;;25.99;38.73;101485.00;4968292;28;20030;-80
2022/05/10 11:34:21;;;;;;;11.88;5.07;;;;;;;26.16;38.28;101474.72;4969683;28;20097;-80
2022/05/10 11:36:49;;;;;;;7.90;4.75;;;;;;;26.32;38.00;101479.75;4950154;29;20035;-78
2022/05/10 11:39:53;;;;;;;9.02;4.80;;;;;;;26.58;38.58;101470.97;4949959;29;20118;-79